createdAt,value
2018-12-13T00:02:25.474Z,4.87
2018-12-13T00:04:56.805Z,5.63
2018-12-13T00:07:31.298Z,5.93
2018-12-13T00:10:02.342Z,5.10
2018-12-13T00:12:36.767Z,4.93
2018-12-13T00:15:07.716Z,5.40
2018-12-13T00:17:38.557Z,4.53
2018-12-13T00:20:11.047Z,5.33
2018-12-13T00:22:48.362Z,3.73
2018-12-13T00:25:24.169Z,4.20
2018-12-13T00:27:55.559Z,4.30
2018-12-13T00:30:26.344Z,3.83
2018-12-13T00:32:56.547Z,7.73
2018-12-13T00:35:26.112Z,5.17
2018-12-13T00:37:56.146Z,7.77
2018-12-13T00:40:26.152Z,6.20
2018-12-13T00:42:57.345Z,6.10
2018-12-13T00:45:27.182Z,5.67
2018-12-13T00:47:57.502Z,5.87
2018-12-13T00:50:27.988Z,7.27
2018-12-13T00:52:58.290Z,6.53
2018-12-13T00:55:28.327Z,6.63
2018-12-13T00:57:59.332Z,7.20
2018-12-13T01:00:29.188Z,5.93
2018-12-13T01:02:59.194Z,5.63
2018-12-13T01:05:29.437Z,5.87
2018-12-13T01:08:00.200Z,5.53
2018-12-13T01:10:29.919Z,4.60
2018-12-13T01:13:03.158Z,4.63
2018-12-13T01:15:36.018Z,4.67
2018-12-13T01:18:07.284Z,6.57
2018-12-13T01:20:36.646Z,5.40
2018-12-13T01:23:06.349Z,5.13
2018-12-13T01:25:36.434Z,4.73
2018-12-13T01:28:06.361Z,4.60
2018-12-13T01:30:36.446Z,3.60
2018-12-13T01:33:07.740Z,5.23
2018-12-13T01:35:37.601Z,4.07
2018-12-13T01:38:06.949Z,4.80
2018-12-13T01:40:36.656Z,3.40
2018-12-13T01:43:07.675Z,4.93
2018-12-13T01:45:37.471Z,3.83
2018-12-13T01:48:06.816Z,4.37
2018-12-13T01:50:37.421Z,5.53
2018-12-13T01:53:07.804Z,4.10
2018-12-13T01:55:39.312Z,4.67
2018-12-13T01:58:10.073Z,4.33
2018-12-13T02:00:42.118Z,5.57
2018-12-13T02:03:11.308Z,5.10
2018-12-13T02:05:40.558Z,4.67
2018-12-13T02:08:10.990Z,5.57
2018-12-13T02:10:41.011Z,5.53
2018-12-13T02:13:10.665Z,5.83
2018-12-13T02:15:41.692Z,6.17
2018-12-13T02:18:11.403Z,4.50
2018-12-13T02:20:43.159Z,106.83
2018-12-13T02:23:13.047Z,11.90
2018-12-13T02:25:42.950Z,9.17
2018-12-13T02:28:12.243Z,6.10
2018-12-13T02:30:42.715Z,6.03
2018-12-13T02:33:12.852Z,4.43
2018-12-13T02:35:43.049Z,5.20
2018-12-13T02:38:13.391Z,5.80
2018-12-13T02:40:43.755Z,4.23
2018-12-13T02:43:14.940Z,4.70
2018-12-13T02:45:44.459Z,5.23
2018-12-13T02:48:14.444Z,4.40
2018-12-13T02:50:43.853Z,3.27
2018-12-13T02:53:12.987Z,3.70
2018-12-13T02:55:43.288Z,3.50
2018-12-13T02:58:12.965Z,4.73
2018-12-13T03:00:42.978Z,5.00
2018-12-13T03:03:12.680Z,4.30
2018-12-13T03:05:42.652Z,3.53
2018-12-13T03:08:12.277Z,4.13
2018-12-13T03:10:41.902Z,3.90
2018-12-13T03:13:11.122Z,7.90
2018-12-13T03:15:41.352Z,4.70
2018-12-13T03:18:11.061Z,5.43
2018-12-13T03:20:40.240Z,7.30
2018-12-13T03:23:09.949Z,6.13
2018-12-13T03:25:39.151Z,6.80
2018-12-13T03:28:09.278Z,8.73
2018-12-13T03:30:39.369Z,6.80
2018-12-13T03:33:08.799Z,6.83
2018-12-13T03:35:38.353Z,7.73
2018-12-13T03:38:08.093Z,9.37
2018-12-13T03:40:37.619Z,8.23
2018-12-13T03:43:07.441Z,7.07
2018-12-13T03:45:36.779Z,9.80
2018-12-13T03:48:06.342Z,7.53
2018-12-13T03:50:35.572Z,7.07
2018-12-13T03:53:05.358Z,6.37
2018-12-13T03:55:35.338Z,5.73
2018-12-13T03:58:06.216Z,7.43
2018-12-13T04:00:35.416Z,4.10
2018-12-13T04:03:05.059Z,3.10
2018-12-13T04:05:37.364Z,3.93
2018-12-13T04:08:07.520Z,4.57
2018-12-13T04:10:36.782Z,4.17
2018-12-13T04:13:13.715Z,8.40
2018-12-13T04:15:43.223Z,9.27
2018-12-13T04:18:13.992Z,22.87
2018-12-13T04:20:44.257Z,15.17
2018-12-13T04:23:13.739Z,20.30
2018-12-13T04:25:44.815Z,20.10
2018-12-13T04:28:15.935Z,14.60
2018-12-13T04:30:48.749Z,10.73
2018-12-13T04:33:19.491Z,7.30
2018-12-13T04:35:49.065Z,4.00
2018-12-13T04:38:19.394Z,3.20
2018-12-13T04:40:49.828Z,2.13
2018-12-13T04:43:19.157Z,2.50
2018-12-13T04:45:48.746Z,2.00
2018-12-13T04:48:19.869Z,7.63
2018-12-13T04:50:49.982Z,5.43
2018-12-13T04:53:21.209Z,4.47
2018-12-13T04:55:52.560Z,4.83
2018-12-13T04:58:23.122Z,2.37
2018-12-13T05:00:54.097Z,1.90
2018-12-13T05:03:24.131Z,2.83
2018-12-13T05:05:53.723Z,2.97
2018-12-13T05:08:24.803Z,2.70
2018-12-13T05:10:58.349Z,3.80
2018-12-13T05:13:30.526Z,3.30
2018-12-13T05:16:02.706Z,4.23
2018-12-13T05:18:33.803Z,3.70
2018-12-13T05:21:03.933Z,3.50
2018-12-13T05:23:34.901Z,4.93
2018-12-13T05:26:05.413Z,6.57
2018-12-13T05:28:39.866Z,7.87
2018-12-13T05:31:10.761Z,8.17
2018-12-13T05:33:45.439Z,8.87
2018-12-13T05:36:17.196Z,8.43
2018-12-13T05:38:48.285Z,12.97
2018-12-13T05:41:19.473Z,8.07
2018-12-13T05:43:55.054Z,11.70
2018-12-13T05:46:31.016Z,9.77
2018-12-13T05:49:04.187Z,14.20
2018-12-13T05:51:35.720Z,28.93
2018-12-13T05:54:07.029Z,33.17
2018-12-13T05:56:38.610Z,47.70
2018-12-13T05:59:11.162Z,41.60
2018-12-13T06:01:43.128Z,55.20
2018-12-13T06:04:16.789Z,24.93
2018-12-13T06:06:50.390Z,15.43
2018-12-13T06:09:22.781Z,6.40
2018-12-13T06:11:56.511Z,6.83
2018-12-13T06:14:32.750Z,5.03
2018-12-13T06:17:01.773Z,7.83
2018-12-13T06:19:30.783Z,12.23
2018-12-13T06:22:00.192Z,8.67
2018-12-13T06:24:29.458Z,6.73
2018-12-13T06:26:58.483Z,7.73
2018-12-13T06:29:28.156Z,8.23
2018-12-13T06:31:59.582Z,10.13
2018-12-13T06:34:30.233Z,11.87
2018-12-13T06:36:59.869Z,14.63
2018-12-13T06:39:29.154Z,12.47
2018-12-13T06:41:58.963Z,11.43
2018-12-13T06:44:28.387Z,12.70
2018-12-13T06:46:58.081Z,15.33
2018-12-13T06:49:27.369Z,13.43
2018-12-13T06:51:56.507Z,12.33
2018-12-13T06:54:25.502Z,11.57
2018-12-13T06:56:54.686Z,15.53
2018-12-13T06:59:23.780Z,13.20
2018-12-13T07:04:19.169Z,14.93
2018-12-13T07:06:48.123Z,15.00
2018-12-13T07:09:17.132Z,17.50
2018-12-13T07:11:46.146Z,18.43
2018-12-13T07:14:15.165Z,14.80
2018-12-13T07:16:44.145Z,15.53
2018-12-13T07:19:13.509Z,22.63
2018-12-13T07:21:42.490Z,20.00
2018-12-13T07:24:11.527Z,15.90
2018-12-13T07:26:40.540Z,16.57
2018-12-13T07:29:09.512Z,17.57
2018-12-13T07:31:38.541Z,10.50
2018-12-13T07:34:07.658Z,17.90
2018-12-13T07:36:36.690Z,18.80
2018-12-13T07:39:09.024Z,16.30
2018-12-13T07:41:38.098Z,23.33
2018-12-13T07:44:07.153Z,22.63
2018-12-13T07:46:36.537Z,20.67
2018-12-13T07:49:05.539Z,15.47
2018-12-13T07:51:34.503Z,18.30
2018-12-13T07:54:03.803Z,20.73
2018-12-13T07:56:35.683Z,21.37
2018-12-13T07:59:04.764Z,20.50
2018-12-13T08:01:33.767Z,21.70
2018-12-13T08:04:02.737Z,21.33
2018-12-13T08:06:31.762Z,17.67
2018-12-13T08:09:00.723Z,18.37
2018-12-13T08:11:29.765Z,24.53
2018-12-13T08:13:58.782Z,21.13
2018-12-13T08:16:27.884Z,22.00
2018-12-13T08:18:56.909Z,20.57
2018-12-13T08:21:25.993Z,22.70
2018-12-13T08:23:54.976Z,20.93
2018-12-13T08:26:23.973Z,20.60
2018-12-13T08:28:53.001Z,18.47
2018-12-13T08:31:22.066Z,19.30
2018-12-13T08:33:51.097Z,15.13
2018-12-13T08:36:20.156Z,14.03
2018-12-13T08:38:49.197Z,17.20
2018-12-13T08:41:18.190Z,16.20
2018-12-13T08:43:47.241Z,14.50
2018-12-13T08:46:16.193Z,15.57
2018-12-13T08:48:45.145Z,15.13
2018-12-13T08:51:14.219Z,18.13
2018-12-13T08:53:43.229Z,15.70
2018-12-13T08:56:12.230Z,13.63
2018-12-13T08:58:41.249Z,15.43
2018-12-13T09:01:10.258Z,18.77
2018-12-13T09:03:39.205Z,18.03
2018-12-13T09:06:08.484Z,15.90
2018-12-13T09:08:37.521Z,13.90
2018-12-13T09:11:06.537Z,18.20
2018-12-13T09:13:35.856Z,12.13
2018-12-13T09:16:04.866Z,13.87
2018-12-13T09:18:33.990Z,9.63
2018-12-13T09:21:03.054Z,11.20
2018-12-13T09:23:32.061Z,11.30
2018-12-13T09:26:01.073Z,10.60
2018-12-13T09:28:30.136Z,11.80
2018-12-13T09:30:59.165Z,12.40
2018-12-13T09:33:28.193Z,18.50
2018-12-13T09:35:57.238Z,16.07
2018-12-13T09:38:27.389Z,18.93
2018-12-13T09:40:55.638Z,15.97
2018-12-13T09:43:24.912Z,14.87
2018-12-13T09:45:53.949Z,15.80
2018-12-13T09:48:23.047Z,14.17
2018-12-13T09:50:52.356Z,17.33
2018-12-13T09:53:21.370Z,16.23
2018-12-13T09:55:50.397Z,16.23
2018-12-13T09:58:19.504Z,18.33
2018-12-13T10:00:48.483Z,14.07
2018-12-13T10:03:17.534Z,20.30
2018-12-13T10:05:46.586Z,18.00
2018-12-13T10:08:15.654Z,15.57
2018-12-13T10:10:44.647Z,13.67
2018-12-13T10:13:13.703Z,15.17
2018-12-13T10:15:42.700Z,13.53
2018-12-13T10:18:11.675Z,22.27
2018-12-13T10:20:40.716Z,16.63
2018-12-13T10:23:09.691Z,15.50
2018-12-13T10:25:38.637Z,14.57
2018-12-13T10:28:07.665Z,15.53
2018-12-13T10:30:36.786Z,13.13
2018-12-13T10:33:05.778Z,17.33
2018-12-13T10:35:35.021Z,13.77
2018-12-13T10:38:04.087Z,10.77
2018-12-13T10:40:33.100Z,14.00
2018-12-13T10:43:02.199Z,17.17
2018-12-13T10:45:31.240Z,17.37
2018-12-13T10:48:00.258Z,15.37
2018-12-13T10:50:29.606Z,15.63
2018-12-13T10:52:58.566Z,16.57
2018-12-13T10:55:27.519Z,15.03
2018-12-13T10:57:56.521Z,17.40
2018-12-13T11:00:30.518Z,18.50
2018-12-13T11:03:36.104Z,17.60
2018-12-13T11:06:05.324Z,17.70
2018-12-13T11:08:34.315Z,18.57
2018-12-13T11:11:03.317Z,17.83
2018-12-13T11:13:32.358Z,16.03
2018-12-13T11:16:01.362Z,13.93
2018-12-13T11:18:30.393Z,18.87
2018-12-13T11:20:59.374Z,13.63
2018-12-13T11:23:28.392Z,18.23
2018-12-13T11:25:57.816Z,15.40
2018-12-13T11:28:37.780Z,14.40
2018-12-13T11:31:06.886Z,12.90
2018-12-13T11:33:35.962Z,12.17
2018-12-13T11:36:04.989Z,13.97
2018-12-13T11:38:34.364Z,12.77
2018-12-13T11:41:03.325Z,8.30
2018-12-13T11:43:32.350Z,10.57
2018-12-13T11:46:01.359Z,12.93
2018-12-13T11:48:30.381Z,11.90
2018-12-13T11:50:59.403Z,12.03
2018-12-13T11:53:28.502Z,16.43
2018-12-13T11:55:57.578Z,13.87
2018-12-13T11:58:26.527Z,15.03
2018-12-13T12:00:55.576Z,17.17
2018-12-13T12:03:24.667Z,17.70
2018-12-13T12:05:53.723Z,16.83
2018-12-13T12:08:22.794Z,15.03
2018-12-13T12:10:51.939Z,15.10
2018-12-13T12:13:20.962Z,14.47
2018-12-13T12:15:50.098Z,19.23
2018-12-13T12:18:19.088Z,16.50
2018-12-13T12:20:48.246Z,21.87
2018-12-13T12:23:17.366Z,24.83
2018-12-13T12:25:46.537Z,24.77
2018-12-13T12:28:15.503Z,21.17
2018-12-13T12:30:44.523Z,24.80
2018-12-13T12:33:13.538Z,23.27
2018-12-13T12:35:42.515Z,18.57
2018-12-13T12:38:11.900Z,18.23
2018-12-13T12:40:40.885Z,18.67
2018-12-13T12:43:09.901Z,17.80
2018-12-13T12:45:39.030Z,17.13
2018-12-13T12:48:08.079Z,12.17
2018-12-13T12:50:37.068Z,14.83
2018-12-13T12:53:06.106Z,17.20
2018-12-13T12:55:35.459Z,17.60
2018-12-13T12:58:04.516Z,18.30
2018-12-13T13:00:33.561Z,14.87
2018-12-13T13:03:02.634Z,15.00
2018-12-13T13:05:31.701Z,13.37
2018-12-13T13:08:00.807Z,15.60
2018-12-13T13:10:29.845Z,17.80
2018-12-13T13:12:58.888Z,16.70
2018-12-13T13:15:27.931Z,15.07
2018-12-13T13:17:57.290Z,13.67
2018-12-13T13:20:26.496Z,13.07
2018-12-13T13:22:55.628Z,16.23
2018-12-13T13:25:24.649Z,14.60
2018-12-13T13:27:53.797Z,13.00
2018-12-13T13:30:22.974Z,15.07
2018-12-13T13:32:52.416Z,16.40
2018-12-13T13:35:21.563Z,13.30
2018-12-13T13:37:51.013Z,16.17
2018-12-13T13:40:20.133Z,18.70
2018-12-13T13:42:49.205Z,17.47
2018-12-13T13:45:18.446Z,15.90
2018-12-13T13:47:47.569Z,14.40
2018-12-13T13:50:16.615Z,14.13
2018-12-13T13:52:45.693Z,12.07
2018-12-13T13:55:14.801Z,16.87
2018-12-13T13:57:43.855Z,15.77
2018-12-13T14:00:13.343Z,23.20
2018-12-13T14:02:42.362Z,16.67
2018-12-13T14:05:11.394Z,17.63
2018-12-13T14:07:40.444Z,16.63
2018-12-13T14:10:09.477Z,17.37
2018-12-13T14:12:38.464Z,17.90
2018-12-13T14:15:08.051Z,16.83
2018-12-13T14:17:37.059Z,18.37
2018-12-13T14:20:06.387Z,18.93
2018-12-13T14:22:35.986Z,18.67
2018-12-13T14:25:08.130Z,19.93
2018-12-13T14:27:37.426Z,23.57
2018-12-13T14:30:06.770Z,20.20
2018-12-13T14:32:35.788Z,22.50
2018-12-13T14:35:05.117Z,17.43
2018-12-13T14:37:34.227Z,12.87
2018-12-13T14:40:03.298Z,8.47
2018-12-13T14:42:32.344Z,6.03
2018-12-13T14:45:01.445Z,7.67
2018-12-13T14:47:30.464Z,3.67
2018-12-13T14:49:59.536Z,3.13
2018-12-13T14:52:29.010Z,2.70
2018-12-13T14:54:58.439Z,4.60
2018-12-13T14:57:27.500Z,3.00
2018-12-13T14:59:56.544Z,3.33
2018-12-13T15:02:25.903Z,2.53
2018-12-13T15:04:55.338Z,5.90
2018-12-13T15:07:24.430Z,4.70
2018-12-13T15:09:53.566Z,2.70
2018-12-13T15:12:22.668Z,3.60
2018-12-13T15:14:51.714Z,2.80
2018-12-13T15:17:20.774Z,4.07
2018-12-13T15:19:50.275Z,2.30
2018-12-13T15:22:19.283Z,2.57
2018-12-13T15:24:48.330Z,8.60
2018-12-13T15:27:17.722Z,16.00
2018-12-13T15:29:46.754Z,13.13
2018-12-13T15:32:15.815Z,9.63
2018-12-13T15:34:44.915Z,9.33
2018-12-13T15:37:13.962Z,11.90
2018-12-13T15:39:43.038Z,9.97
2018-12-13T15:42:12.499Z,8.10
2018-12-13T15:44:41.605Z,10.73
2018-12-13T15:47:10.671Z,28.03
2018-12-13T15:49:39.894Z,37.67
2018-12-13T15:52:08.923Z,26.30
2018-12-13T15:54:37.945Z,34.07
2018-12-13T15:57:06.966Z,36.90
2018-12-13T15:59:36.033Z,70.40
2018-12-13T16:02:05.392Z,64.03
2018-12-13T16:04:34.970Z,44.73
2018-12-13T16:07:04.051Z,46.93
2018-12-13T16:09:33.066Z,38.13
2018-12-13T16:12:02.206Z,36.73
2018-12-13T16:14:31.457Z,37.93
2018-12-13T16:17:00.572Z,52.27
2018-12-13T16:19:29.636Z,48.87
2018-12-13T16:21:58.634Z,49.30
2018-12-13T16:24:27.664Z,44.93
2018-12-13T16:26:56.788Z,45.07
2018-12-13T16:29:26.866Z,43.30
2018-12-13T16:31:55.894Z,46.80
2018-12-13T16:34:25.093Z,42.80
2018-12-13T16:36:54.130Z,43.73
2018-12-13T16:39:23.282Z,44.30
2018-12-13T16:41:52.541Z,44.03
2018-12-13T16:44:21.732Z,37.57
2018-12-13T16:46:50.816Z,40.87
2018-12-13T16:49:19.912Z,37.77
2018-12-13T16:51:48.914Z,41.13
2018-12-13T16:54:17.976Z,39.93
2018-12-13T16:56:47.018Z,41.07
2018-12-13T16:59:16.092Z,39.57
2018-12-13T17:01:45.176Z,48.40
2018-12-13T17:04:14.255Z,46.80
2018-12-13T17:06:43.302Z,47.10
2018-12-13T17:09:12.348Z,53.97
2018-12-13T17:11:41.438Z,48.93
2018-12-13T17:14:10.642Z,52.47
2018-12-13T17:16:39.734Z,49.70
2018-12-13T17:19:08.865Z,44.73
2018-12-13T17:21:38.292Z,50.10
2018-12-13T17:24:07.449Z,39.87
2018-12-13T17:26:36.653Z,16.67
2018-12-13T17:29:05.734Z,38.57
2018-12-13T17:31:34.775Z,40.27
2018-12-13T17:34:03.898Z,37.73
2018-12-13T17:36:33.115Z,40.33
2018-12-13T17:39:02.441Z,39.80
2018-12-13T17:41:31.852Z,40.03
2018-12-13T17:44:00.924Z,48.60
2018-12-13T17:46:29.940Z,47.33
2018-12-13T17:48:59.539Z,196.10
2018-12-13T17:51:28.582Z,334.80
2018-12-13T17:53:57.702Z,169.13
2018-12-13T17:56:27.113Z,227.60
2018-12-13T17:58:56.147Z,116.17
2018-12-13T18:01:25.262Z,70.20
2018-12-13T18:03:54.363Z,70.00
2018-12-13T18:06:23.444Z,60.67
2018-12-13T18:08:52.536Z,59.90
2018-12-13T18:11:21.736Z,50.53
2018-12-13T18:13:50.839Z,49.70
2018-12-13T18:16:19.904Z,38.53
2018-12-13T18:18:49.127Z,41.83
2018-12-13T18:21:18.196Z,45.53
2018-12-13T18:23:47.920Z,41.83
2018-12-13T18:26:17.034Z,42.40
2018-12-13T18:28:46.058Z,56.27
2018-12-13T18:31:15.225Z,53.87
2018-12-13T18:33:44.431Z,67.17
2018-12-13T18:36:13.470Z,60.00
2018-12-13T18:38:42.520Z,59.10
2018-12-13T18:41:11.651Z,52.90
2018-12-13T18:43:40.769Z,28.77
2018-12-13T18:46:09.986Z,36.57
2018-12-13T18:48:39.086Z,37.97
2018-12-13T18:51:08.220Z,43.07
2018-12-13T18:53:37.409Z,46.57
2018-12-13T18:56:06.463Z,44.03
2018-12-13T18:58:35.546Z,43.50
2018-12-13T19:01:04.625Z,49.20
2018-12-13T19:03:33.997Z,47.40
2018-12-13T19:06:03.083Z,35.73
2018-12-13T19:08:32.385Z,29.33
2018-12-13T19:11:01.843Z,25.07
2018-12-13T19:13:30.962Z,25.97
2018-12-13T19:16:00.049Z,29.37
2018-12-13T19:18:29.169Z,28.27
2018-12-13T19:20:58.239Z,28.20
2018-12-13T19:23:27.301Z,27.70
2018-12-13T19:25:56.388Z,24.90
2018-12-13T19:28:25.468Z,28.20
2018-12-13T19:30:54.675Z,27.33
2018-12-13T19:33:23.828Z,29.77
2018-12-13T19:35:52.877Z,28.47
2018-12-13T19:38:21.906Z,26.03
2018-12-13T19:40:51.031Z,26.60
2018-12-13T19:43:20.364Z,28.17
2018-12-13T19:45:49.558Z,31.23
2018-12-13T19:48:18.601Z,28.67
2018-12-13T19:50:47.767Z,41.03
2018-12-13T19:53:16.883Z,34.10
2018-12-13T19:55:46.028Z,33.57
2018-12-13T19:58:15.226Z,37.17
2018-12-13T20:00:44.316Z,36.57
2018-12-13T20:03:13.510Z,29.97
2018-12-13T20:05:42.542Z,32.87
2018-12-13T20:08:11.619Z,30.77
2018-12-13T20:10:41.085Z,31.10
2018-12-13T20:13:10.142Z,29.37
2018-12-13T20:15:39.364Z,33.80
2018-12-13T20:18:08.604Z,39.20
2018-12-13T20:20:37.693Z,40.93
2018-12-13T20:23:06.742Z,43.60
2018-12-13T20:25:35.889Z,45.70
2018-12-13T20:28:05.082Z,48.03
2018-12-13T20:30:34.539Z,47.57
2018-12-13T20:33:03.782Z,45.90
2018-12-13T20:35:32.904Z,46.67
2018-12-13T20:38:02.206Z,47.57
2018-12-13T20:40:31.318Z,47.07
2018-12-13T20:43:00.518Z,47.40
2018-12-13T20:45:29.619Z,45.43
2018-12-13T20:47:58.963Z,51.80
2018-12-13T20:50:28.050Z,44.87
2018-12-13T20:52:57.253Z,47.07
2018-12-13T20:55:26.638Z,49.40
2018-12-13T20:57:55.902Z,48.77
2018-12-13T21:00:25.061Z,53.27
2018-12-13T21:02:54.339Z,49.37
2018-12-13T21:05:23.443Z,43.93
2018-12-13T21:07:52.581Z,48.70
2018-12-13T21:10:21.964Z,47.50
2018-12-13T21:12:51.041Z,50.57
2018-12-13T21:15:20.271Z,48.10
2018-12-13T21:17:49.434Z,47.20
2018-12-13T21:20:18.641Z,50.93
2018-12-13T21:22:47.830Z,43.10
2018-12-13T21:25:16.873Z,49.17
2018-12-13T21:27:45.996Z,53.27
2018-12-13T21:30:15.065Z,49.13
2018-12-13T21:32:44.254Z,49.50
2018-12-13T21:35:13.392Z,47.30
2018-12-13T21:37:42.461Z,52.70
2018-12-13T21:40:11.570Z,51.60
2018-12-13T21:42:40.632Z,55.00
2018-12-13T21:45:09.889Z,52.17
2018-12-13T21:47:39.056Z,51.73
2018-12-13T21:50:09.131Z,51.73
2018-12-13T21:52:38.218Z,53.63
2018-12-13T21:55:07.384Z,51.83
2018-12-13T21:57:36.830Z,49.80
2018-12-13T22:00:08.128Z,51.57
2018-12-13T22:02:37.789Z,63.07
2018-12-13T22:05:07.009Z,58.07
2018-12-13T22:07:36.231Z,54.83
2018-12-13T22:10:06.328Z,53.80
2018-12-13T22:12:35.449Z,54.47
2018-12-13T22:15:04.610Z,57.87
2018-12-13T22:17:33.865Z,60.10
2018-12-13T22:20:02.870Z,57.27
2018-12-13T22:22:31.880Z,56.90
2018-12-13T22:25:01.144Z,54.07
2018-12-13T22:27:30.206Z,57.97
2018-12-13T22:29:59.217Z,63.33
2018-12-13T22:32:28.414Z,60.30
2018-12-13T22:34:57.606Z,60.60
2018-12-13T22:37:26.706Z,64.97
2018-12-13T22:39:55.811Z,64.90
2018-12-13T22:42:24.793Z,56.47
2018-12-13T22:44:53.818Z,63.13
2018-12-13T22:47:22.908Z,64.37
2018-12-13T22:49:51.898Z,61.43
2018-12-13T22:52:20.912Z,56.97
2018-12-13T22:54:49.999Z,62.40
2018-12-13T22:57:18.987Z,54.43
2018-12-13T22:59:48.199Z,56.23
2018-12-13T23:02:17.819Z,53.10
2018-12-13T23:04:47.021Z,54.30
2018-12-13T23:07:16.242Z,53.80
2018-12-13T23:09:45.542Z,55.17
2018-12-13T23:12:14.707Z,54.80
2018-12-13T23:14:44.057Z,55.30
2018-12-13T23:17:13.490Z,57.37
2018-12-13T23:19:42.675Z,57.47
2018-12-13T23:22:11.900Z,53.60
2018-12-13T23:24:41.143Z,51.13
2018-12-13T23:27:10.335Z,51.80
2018-12-13T23:29:39.499Z,54.60
2018-12-13T23:32:08.984Z,52.90
2018-12-13T23:34:38.192Z,53.30
2018-12-13T23:37:07.465Z,48.13
2018-12-13T23:39:37.017Z,43.00
2018-12-13T23:42:06.203Z,42.47
2018-12-13T23:44:35.364Z,40.93
2018-12-13T23:47:04.804Z,43.27
2018-12-13T23:49:34.062Z,39.23
2018-12-13T23:52:03.386Z,40.90
2018-12-13T23:54:32.714Z,39.63
2018-12-13T23:57:01.946Z,34.87
2018-12-13T23:59:31.199Z,33.23
